Terminal Aerodrome Forecast
Issued by NWS

Home | Current Version | Previous Version | Text Only | Print | Product List | Glossary On
Versions: 1 2 3 4 5 6 7 8 9 10 11 12 13 14 15 16 17 18 19 20 21 22 23 24 25
000
FTUS46 KSEW 270535
TAFPAE
TAF
KPAE 270535Z 2706/2806 15013KT P6SM -SHRA SCT007 SCT012 OVC028
      TEMPO 2706/2709 5SM -SHRA BR BKN007 OVC012
     FM270900 17010KT P6SM VCSH OVC012
     FM271800 17013G20KT P6SM -SHRA BKN020 OVC045
     FM272100 18015G23KT P6SM -SHRA BKN025 OVC050
     FM280000 19009KT P6SM -SHRA BKN035 OVC050
     FM280300 19006KT P6SM VCSH SCT035 BKN050=

USA.gov is the U.S. government's official web portal to all federal, state and local government web resources and services.